Terminal Aerodrome Forecast
Issued by NWS

Current Version | Previous Version | Text Only | Print | Product List | Glossary Off
Versions: 1 2 3 4 5 6 7 8 9 10 11 12 13 14 15 16 17 18 19 20 21

000
FTUS41 KILN 262300
TAFLCK
TAF
KLCK 262338Z 2700/2724 21005KT P6SM OVC040
     FM270500 21006KT 5SM -SHRA VCTS BKN040CB OVC150
      TEMPO 2706/2709 2SM -TSRA OVC020CB
     FM271000 20006KT P6SM VCSH SCT035 OVC080
     FM271700 21010G18KT P6SM -SHRA VCTS BKN035CB
     FM272300 27015G25KT P6SM VCSH BKN040=

USA.gov is the U.S. government's official web portal to all federal, state and local government web resources and services.